Time;durP1;ratioP1;P1;durP2;ratioP2;P2;SDS_P1;SDS_P2;PMS_P1;PMS_P2;Temp;Humidity;BMP_temperature;BMP_pressure;BME280_temperature;BME280_humidity;BME280_pressure;Samples;Min_cycle;Max_cycle;Signal;HPM_P1;HPM_P2
2022/01/08 00:00:36;;;;;;;21.55;20.55;;;10.00;78.30;;;;;;5069270;28;20040;-82
2022/01/08 00:03:03;;;;;;;21.75;20.75;;;10.00;78.30;;;;;;5088371;28;20047;-83
2022/01/08 00:05:29;;;;;;;20.75;19.75;;;10.00;78.30;;;;;;5086304;28;20481;-82
2022/01/08 00:07:55;;;;;;;21.23;20.23;;;10.00;78.30;;;;;;5102252;28;20028;-83
2022/01/08 00:10:22;;;;;;;21.50;20.50;;;9.90;78.30;;;;;;5070793;28;20029;-82
2022/01/08 00:12:50;;;;;;;22.85;21.75;;;9.90;78.40;;;;;;5070518;28;20028;-83
2022/01/08 00:15:16;;;;;;;22.05;21.05;;;9.90;78.50;;;;;;5069973;28;20490;-82
2022/01/08 00:17:43;;;;;;;21.95;20.95;;;9.90;78.50;;;;;;5071434;28;20044;-82
2022/01/08 00:20:09;;;;;;;21.30;20.30;;;9.90;78.50;;;;;;5067688;28;20036;-83
2022/01/08 00:22:35;;;;;;;20.80;19.80;;;9.90;78.60;;;;;;5052930;28;20057;-82
2022/01/08 00:25:02;;;;;;;21.45;20.38;;;9.90;78.50;;;;;;5053067;28;20482;-82
2022/01/08 00:27:28;;;;;;;20.55;18.92;;;9.90;78.60;;;;;;5052037;28;20049;-83
2022/01/08 00:29:54;;;;;;;20.48;19.45;;;9.90;78.50;;;;;;5067735;28;20041;-82
2022/01/08 00:32:21;;;;;;;19.75;18.85;;;9.80;78.50;;;;;;5067996;28;20044;-82
2022/01/08 00:34:47;;;;;;;19.77;18.88;;;9.90;78.60;;;;;;5052200;28;20048;-82
2022/01/08 00:37:13;;;;;;;20.05;19.05;;;9.90;78.60;;;;;;5069948;28;20473;-82
2022/01/08 00:39:40;;;;;;;19.70;18.73;;;9.80;78.50;;;;;;5069357;28;20040;-82
2022/01/08 00:42:06;;;;;;;20.70;19.50;;;9.80;78.60;;;;;;5070696;28;20032;-82
2022/01/08 00:44:32;;;;;;;19.48;18.48;;;9.80;78.60;;;;;;5069045;28;20393;-83
2022/01/08 00:46:58;;;;;;;19.50;18.60;;;9.80;78.60;;;;;;5068416;28;20040;-83
2022/01/08 00:49:25;;;;;;;20.50;19.50;;;9.80;78.70;;;;;;5052023;28;20393;-83
2022/01/08 00:51:51;;;;;;;19.45;18.55;;;9.80;78.70;;;;;;5068699;28;20489;-82
2022/01/08 00:54:18;;;;;;;19.23;18.33;;;9.80;78.70;;;;;;5069558;28;20036;-82
2022/01/08 00:56:44;;;;;;;19.50;18.60;;;9.80;78.70;;;;;;5069698;28;20052;-82
2022/01/08 00:59:10;;;;;;;19.52;18.63;;;9.80;78.70;;;;;;5068503;28;20486;-82
2022/01/08 01:01:36;;;;;;;19.88;18.98;;;9.80;78.80;;;;;;5066961;28;20047;-82
2022/01/08 01:04:02;;;;;;;19.05;18.15;;;9.80;78.80;;;;;;5068617;28;20405;-82
2022/01/08 01:06:28;;;;;;;21.95;20.00;;;9.80;78.80;;;;;;5068536;28;20039;-83
2022/01/08 01:08:54;;;;;;;19.58;18.42;;;9.70;78.80;;;;;;5087652;28;20032;-82
2022/01/08 01:11:20;;;;;;;18.40;17.58;;;9.70;78.80;;;;;;5069845;28;20029;-82
2022/01/08 01:13:46;;;;;;;19.48;18.58;;;9.70;78.80;;;;;;5052306;28;20035;-82
2022/01/08 01:16:12;;;;;;;19.30;18.40;;;9.70;78.80;;;;;;5069025;28;20053;-83
2022/01/08 01:18:39;;;;;;;19.80;18.83;;;9.70;78.80;;;;;;5068866;28;20037;-82
2022/01/08 01:21:05;;;;;;;20.23;19.25;;;9.70;78.90;;;;;;5052915;28;20036;-82
2022/01/08 01:23:39;;;;;;;19.45;18.55;;;9.80;78.90;;;;;;5069900;28;20032;-83
2022/01/08 01:26:09;;;;;;;20.52;19.38;;;9.80;78.90;;;;;;5069592;28;20032;-82
2022/01/08 01:47:18;;;;;;;18.52;17.67;;;9.80;79.00;;;;;;5058246;28;20039;-83
2022/01/08 01:49:46;;;;;;;19.23;18.33;;;9.70;79.00;;;;;;5071746;28;20035;-82
2022/01/08 01:52:13;;;;;;;18.42;17.63;;;9.70;78.90;;;;;;5040180;28;20033;-82
2022/01/08 01:54:40;;;;;;;17.95;17.15;;;9.70;79.00;;;;;;5073386;28;20409;-82
2022/01/08 01:57:07;;;;;;;17.98;17.17;;;9.80;79.10;;;;;;5074191;28;20052;-82
2022/01/08 01:59:33;;;;;;;19.40;17.98;;;9.70;79.00;;;;;;5072955;28;20036;-82
2022/01/08 02:01:59;;;;;;;18.65;17.77;;;9.80;79.00;;;;;;5071381;28;20440;-82
2022/01/08 02:04:26;;;;;;;19.10;18.20;;;9.80;79.00;;;;;;5071332;28;20039;-83
2022/01/08 02:06:52;;;;;;;18.75;17.85;;;9.80;79.00;;;;;;5071719;28;20035;-82
2022/01/08 02:09:18;;;;;;;18.30;17.50;;;9.80;79.00;;;;;;5072369;28;20028;-82
2022/01/08 02:12:00;;;;;;;19.38;18.30;;;9.80;79.00;;;;;;5072442;28;20020;-83
2022/01/08 02:14:28;;;;;;;19.73;18.73;;;9.80;79.00;;;;;;5071477;28;20032;-82
2022/01/08 02:16:55;;;;;;;19.10;18.20;;;9.80;79.00;;;;;;5069049;28;20052;-83
2022/01/08 02:19:21;;;;;;;19.33;18.42;;;9.90;79.00;;;;;;5055654;28;20041;-82
2022/01/08 02:21:51;;;;;;;18.15;17.27;;;9.90;79.00;;;;;;5071746;28;20036;-83
2022/01/08 02:24:17;;;;;;;18.70;17.80;;;9.90;79.00;;;;;;5072651;28;20032;-83
2022/01/08 02:26:43;;;;;;;18.42;17.58;;;9.90;79.00;;;;;;5072797;28;20096;-83
2022/01/08 02:29:13;;;;;;;19.48;18.38;;;9.90;79.10;;;;;;5072690;28;20028;-82
2022/01/08 02:31:40;;;;;;;18.35;17.55;;;9.90;79.10;;;;;;5070608;28;20037;-82
2022/01/08 02:34:06;;;;;;;18.95;18.05;;;9.90;79.10;;;;;;5055378;28;20033;-82
2022/01/08 02:36:33;;;;;;;18.65;17.75;;;9.90;79.10;;;;;;5072413;28;20036;-82
2022/01/08 02:38:59;;;;;;;18.63;17.75;;;9.90;79.10;;;;;;5089822;28;20401;-82
2022/01/08 02:41:27;;;;;;;19.17;18.20;;;9.90;79.10;;;;;;5071848;28;20029;-83
2022/01/08 02:43:54;;;;;;;18.42;17.60;;;9.80;79.10;;;;;;5072475;28;20028;-82
2022/01/08 02:46:20;;;;;;;18.52;17.65;;;9.90;79.20;;;;;;5070086;28;20032;-83
2022/01/08 02:48:46;;;;;;;19.75;18.25;;;9.80;80.00;;;;;;5054848;28;20039;-82
2022/01/08 02:51:12;;;;;;;18.85;17.95;;;9.80;79.30;;;;;;5073531;28;20035;-82
2022/01/08 02:53:39;;;;;;;19.30;18.27;;;9.80;79.30;;;;;;5105245;28;20032;-82
2022/01/08 02:56:05;;;;;;;18.73;17.83;;;9.80;79.30;;;;;;5101958;28;20057;-82
2022/01/08 02:58:32;;;;;;;19.40;18.40;;;9.80;79.30;;;;;;5070244;28;20032;-82
2022/01/08 03:00:58;;;;;;;19.10;17.95;;;9.80;79.40;;;;;;5070634;28;20040;-83
2022/01/08 03:03:24;;;;;;;18.80;17.90;;;9.80;79.40;;;;;;5068066;28;20024;-83
2022/01/08 03:05:50;;;;;;;17.77;16.98;;;9.80;79.40;;;;;;5066354;28;20013;-82
2022/01/08 03:08:16;;;;;;;17.60;16.80;;;9.80;79.40;;;;;;5063529;28;20040;-82
2022/01/08 03:10:42;;;;;;;19.60;17.98;;;9.80;79.40;;;;;;5062769;28;20035;-82
2022/01/08 03:13:08;;;;;;;17.80;16.95;;;9.80;79.40;;;;;;5083704;28;20036;-82
2022/01/08 03:15:36;;;;;;;18.20;17.35;;;9.80;79.40;;;;;;5085040;28;20405;-82
2022/01/08 03:18:06;;;;;;;19.30;18.38;;;9.80;79.40;;;;;;5100169;28;20041;-83
2022/01/08 03:20:33;;;;;;;19.93;18.73;;;9.90;79.50;;;;;;5089405;28;20033;-82
2022/01/08 03:23:04;;;;;;;18.92;18.02;;;9.80;79.40;;;;;;5056911;28;20029;-82
2022/01/08 03:25:31;;;;;;;19.83;18.55;;;9.80;79.40;;;;;;5090816;28;20048;-83
2022/01/08 03:27:57;;;;;;;18.83;17.92;;;9.90;79.40;;;;;;5054842;28;20490;-82
2022/01/08 03:30:24;;;;;;;18.23;17.42;;;9.90;79.40;;;;;;5085509;28;20036;-82
2022/01/08 03:32:52;;;;;;;18.52;17.67;;;9.90;79.50;;;;;;5068053;28;20032;-82
2022/01/08 03:35:18;;;;;;;18.67;17.50;;;9.80;79.40;;;;;;5090867;28;20040;-83
2022/01/08 03:37:44;;;;;;;20.05;19.05;;;9.90;79.50;;;;;;5051431;28;20032;-82
2022/01/08 03:40:11;;;;;;;18.17;17.38;;;9.90;79.50;;;;;;5069837;28;20303;-82
2022/01/08 03:42:37;;;;;;;19.50;18.15;;;9.90;79.50;;;;;;5069537;28;20064;-82
2022/01/08 03:45:03;;;;;;;18.80;17.90;;;9.90;79.50;;;;;;5054004;28;20040;-82
2022/01/08 03:47:52;;;;;;;18.17;17.38;;;9.90;79.50;;;;;;5070636;28;20043;-82
2022/01/08 03:50:15;;;;;;;17.95;17.05;;;9.90;79.50;;;;;;5067408;28;20025;-83
2022/01/08 03:52:42;;;;;;;18.73;17.67;;;9.90;79.40;;;;;;5070917;28;20033;-82
2022/01/08 03:55:08;;;;;;;18.10;17.27;;;9.90;79.40;;;;;;5071086;28;20103;-83
2022/01/08 03:57:34;;;;;;;17.70;16.90;;;9.90;79.50;;;;;;5070583;28;20020;-82
2022/01/08 04:00:00;;;;;;;20.42;18.70;;;10.00;79.50;;;;;;5088306;28;20488;-83
2022/01/08 04:02:26;;;;;;;18.92;17.90;;;10.00;79.50;;;;;;5070105;28;20040;-83
2022/01/08 04:04:52;;;;;;;18.23;17.42;;;10.00;79.50;;;;;;5053684;28;20036;-83
2022/01/08 04:07:18;;;;;;;18.65;17.73;;;10.00;79.50;;;;;;5070370;28;20033;-83
2022/01/08 04:09:45;;;;;;;18.08;17.17;;;10.00;79.50;;;;;;5070698;28;20029;-83
2022/01/08 04:12:16;;;;;;;18.98;18.02;;;10.00;79.50;;;;;;5071958;28;20029;-83
2022/01/08 04:15:02;;;;;;;18.35;17.45;;;10.00;79.50;;;;;;5070075;28;20058;-82
2022/01/08 04:17:28;;;;;;;18.08;17.27;;;10.00;79.50;;;;;;5069460;28;20512;-83
2022/01/08 04:19:54;;;;;;;18.23;17.33;;;10.10;79.50;;;;;;5069277;28;20024;-82
2022/01/08 04:22:20;;;;;;;18.17;17.38;;;10.10;79.50;;;;;;5069412;28;20025;-82
2022/01/08 04:24:46;;;;;;;18.83;17.92;;;10.00;79.40;;;;;;5070459;28;20036;-82
2022/01/08 04:27:12;;;;;;;18.10;17.30;;;10.10;79.50;;;;;;5070578;28;20094;-83
2022/01/08 04:29:38;;;;;;;19.50;18.35;;;10.10;79.50;;;;;;5070301;28;20037;-83
2022/01/08 04:32:05;;;;;;;18.00;17.20;;;10.10;79.50;;;;;;5069647;28;20036;-83
2022/01/08 04:34:31;;;;;;;18.92;17.83;;;10.10;79.60;;;;;;5068933;28;20045;-82
2022/01/08 04:36:57;;;;;;;19.15;18.25;;;10.10;79.60;;;;;;5069091;28;20041;-83
2022/01/08 04:39:23;;;;;;;17.55;16.75;;;10.10;79.60;;;;;;5065885;28;20044;-83
2022/01/08 04:41:49;;;;;;;18.67;17.77;;;10.10;79.60;;;;;;5087244;28;20099;-82
2022/01/08 04:44:15;;;;;;;17.55;16.67;;;10.10;79.70;;;;;;5102482;28;20423;-83
2022/01/08 04:46:41;;;;;;;18.13;17.33;;;10.00;79.60;;;;;;5101836;28;20032;-83
2022/01/08 04:49:08;;;;;;;17.45;16.65;;;10.10;79.70;;;;;;5070150;28;20032;-83
2022/01/08 04:51:34;;;;;;;19.42;18.27;;;10.10;79.70;;;;;;5068726;28;20450;-83
2022/01/08 04:54:00;;;;;;;19.15;18.25;;;10.10;79.70;;;;;;5104802;28;20044;-83
2022/01/08 04:56:26;;;;;;;18.95;17.95;;;10.10;79.70;;;;;;5069594;28;20044;-83
2022/01/08 04:58:52;;;;;;;18.05;17.25;;;10.10;79.70;;;;;;5068818;28;20040;-83
2022/01/08 05:01:18;;;;;;;18.58;17.67;;;10.10;79.70;;;;;;5031721;28;20045;-82
2022/01/08 05:03:44;;;;;;;18.65;17.77;;;10.10;79.80;;;;;;5045504;28;20030;-83
2022/01/08 05:06:11;;;;;;;18.42;17.60;;;10.10;79.80;;;;;;5033427;28;20048;-83
2022/01/08 05:08:37;;;;;;;18.52;17.67;;;10.10;79.90;;;;;;5081708;28;20385;-82
2022/01/08 05:11:03;;;;;;;17.80;17.00;;;10.10;79.90;;;;;;5079439;28;20393;-83
2022/01/08 05:13:29;;;;;;;17.50;16.70;;;10.10;79.90;;;;;;5080363;28;20044;-83
2022/01/08 05:15:55;;;;;;;18.70;17.80;;;10.00;79.80;;;;;;5056523;28;20410;-83
2022/01/08 05:18:22;;;;;;;18.67;17.77;;;10.10;79.90;;;;;;5070226;28;20033;-83
2022/01/08 05:21:07;;;;;;;19.20;18.20;;;10.00;79.90;;;;;;5074374;28;20033;-82
2022/01/08 05:23:33;;;;;;;18.73;17.83;;;10.10;79.90;;;;;;5073567;28;20069;-83
2022/01/08 05:25:59;;;;;;;18.25;17.38;;;10.00;79.80;;;;;;5059150;28;20036;-82
2022/01/08 05:28:25;;;;;;;18.08;17.27;;;10.00;79.90;;;;;;5058210;28;20044;-82
2022/01/08 05:30:51;;;;;;;18.13;17.23;;;10.10;79.90;;;;;;5102771;28;20033;-81
2022/01/08 05:33:17;;;;;;;19.25;18.00;;;10.10;80.00;;;;;;5047676;28;20029;-83
2022/01/08 05:35:45;;;;;;;19.15;18.13;;;10.10;79.90;;;;;;5064090;28;20044;-80
2022/01/08 05:38:11;;;;;;;19.15;18.25;;;10.10;79.90;;;;;;5083775;28;20039;-81
2022/01/08 05:40:37;;;;;;;18.05;17.23;;;10.10;79.90;;;;;;5057259;28;20045;-80
2022/01/08 05:43:03;;;;;;;17.83;17.02;;;10.10;79.90;;;;;;5075137;28;20036;-81
2022/01/08 05:45:30;;;;;;;20.08;17.88;;;10.20;80.00;;;;;;5096015;28;20031;-81
2022/01/08 05:47:56;;;;;;;17.77;16.98;;;10.20;80.00;;;;;;5099625;28;20397;-81
2022/01/08 05:50:22;;;;;;;19.52;18.27;;;10.20;80.00;;;;;;5104122;28;20025;-82
2022/01/08 05:52:48;;;;;;;17.50;16.70;;;10.20;80.00;;;;;;5066766;28;20032;-81
2022/01/08 05:55:15;;;;;;;19.60;18.60;;;10.20;80.00;;;;;;5056760;28;20025;-82
2022/01/08 05:57:41;;;;;;;18.42;17.60;;;10.10;80.00;;;;;;5092660;28;20497;-82
2022/01/08 06:00:08;;;;;;;19.55;18.27;;;10.10;80.00;;;;;;5091622;28;20402;-82
2022/01/08 06:02:35;;;;;;;19.75;18.33;;;10.10;80.10;;;;;;5058323;28;20020;-81
2022/01/08 06:05:01;;;;;;;18.08;17.23;;;10.10;80.10;;;;;;5057178;28;20029;-80
2022/01/08 06:07:27;;;;;;;18.92;18.02;;;10.10;80.20;;;;;;5069334;28;20037;-80
2022/01/08 06:09:53;;;;;;;18.83;17.85;;;10.10;80.20;;;;;;5098837;28;20032;-82
2022/01/08 06:12:19;;;;;;;17.73;16.92;;;10.10;80.30;;;;;;5065867;28;20513;-82
2022/01/08 06:14:45;;;;;;;18.83;17.92;;;10.00;80.20;;;;;;5064660;28;20041;-82
2022/01/08 06:17:11;;;;;;;18.83;17.92;;;10.00;80.30;;;;;;5099144;28;20048;-81
2022/01/08 06:19:38;;;;;;;18.13;17.20;;;10.00;80.30;;;;;;5071364;28;20291;-82
2022/01/08 06:22:04;;;;;;;18.88;17.98;;;10.00;80.30;;;;;;5049436;28;20032;-83
2022/01/08 06:24:30;;;;;;;17.75;16.95;;;10.00;80.30;;;;;;5066153;28;20363;-83
2022/01/08 06:26:56;;;;;;;17.63;16.83;;;10.00;80.30;;;;;;5066279;28;20032;-84
2022/01/08 06:29:22;;;;;;;18.52;17.63;;;10.00;80.40;;;;;;5102098;28;20393;-83
2022/01/08 06:31:48;;;;;;;17.40;16.60;;;10.00;80.40;;;;;;5066052;28;20333;-84
2022/01/08 06:34:14;;;;;;;19.15;17.80;;;10.00;80.50;;;;;;5071160;28;20044;-83
2022/01/08 06:36:41;;;;;;;18.15;17.33;;;9.90;80.40;;;;;;5068552;28;20047;-84
2022/01/08 06:39:07;;;;;;;19.52;17.73;;;10.00;80.50;;;;;;5066984;28;20021;-83
2022/01/08 06:41:33;;;;;;;17.67;16.88;;;10.00;80.50;;;;;;5064331;28;20496;-83
2022/01/08 06:43:59;;;;;;;17.80;17.00;;;9.90;80.50;;;;;;5085652;28;20044;-83
2022/01/08 06:46:25;;;;;;;19.15;18.08;;;9.90;80.50;;;;;;5064934;28;20484;-83
2022/01/08 06:48:51;;;;;;;18.85;17.88;;;9.90;80.50;;;;;;5061986;28;20024;-83
2022/01/08 06:51:17;;;;;;;17.58;16.70;;;9.90;80.50;;;;;;5094149;28;20036;-84
2022/01/08 06:53:43;;;;;;;19.05;17.50;;;9.90;80.60;;;;;;5101097;28;20028;-84
2022/01/08 06:56:10;;;;;;;18.15;17.35;;;9.90;80.60;;;;;;5054174;28;20036;-85
2022/01/08 06:58:36;;;;;;;17.10;16.30;;;9.90;80.60;;;;;;5094464;28;20025;-84
2022/01/08 07:01:02;;;;;;;17.70;16.90;;;9.90;80.60;;;;;;5061301;28;20508;-85
2022/01/08 07:03:28;;;;;;;18.75;17.85;;;9.90;80.60;;;;;;5066861;28;20028;-88
2022/01/08 07:05:54;;;;;;;17.90;17.10;;;9.90;80.70;;;;;;5068242;28;20472;-87
2022/01/08 07:08:20;;;;;;;18.52;17.42;;;9.90;80.70;;;;;;5087301;28;20033;-87
2022/01/08 07:10:46;;;;;;;20.75;18.63;;;10.00;80.70;;;;;;5077742;28;20567;-82
2022/01/08 07:13:12;;;;;;;18.92;17.42;;;10.00;80.60;;;;;;5073793;28;20040;-83
2022/01/08 07:15:38;;;;;;;17.50;16.70;;;10.00;80.50;;;;;;5057997;28;20401;-82
2022/01/08 07:18:04;;;;;;;19.80;18.38;;;10.10;80.50;;;;;;5077298;28;20033;-83
2022/01/08 07:20:30;;;;;;;20.25;18.70;;;10.00;80.50;;;;;;5056626;28;20473;-82
2022/01/08 07:22:56;;;;;;;19.95;18.67;;;10.00;80.60;;;;;;5069893;28;20044;-82
2022/01/08 07:25:22;;;;;;;17.73;16.92;;;10.00;80.70;;;;;;5056200;28;20029;-82
2022/01/08 07:27:49;;;;;;;18.65;17.75;;;10.00;80.70;;;;;;5065712;28;20480;-82
2022/01/08 07:30:15;;;;;;;18.33;17.42;;;10.00;80.70;;;;;;5064502;28;20032;-81
2022/01/08 07:32:46;;;;;;;18.50;17.63;;;10.00;80.80;;;;;;5090489;28;20386;-81
2022/01/08 07:35:14;;;;;;;18.67;17.80;;;10.00;80.80;;;;;;5086129;28;20028;-83
2022/01/08 07:37:40;;;;;;;19.38;18.20;;;9.90;80.80;;;;;;5070884;28;20041;-82
2022/01/08 07:40:07;;;;;;;18.27;17.38;;;9.90;80.80;;;;;;5082676;28;20031;-82
2022/01/08 07:42:33;;;;;;;18.83;17.92;;;9.90;80.80;;;;;;5064092;28;20029;-80
2022/01/08 07:44:59;;;;;;;18.65;17.70;;;9.90;80.80;;;;;;5066103;28;20458;-87
2022/01/08 07:47:25;;;;;;;18.02;17.23;;;9.90;80.80;;;;;;5051828;28;20028;-80
2022/01/08 07:49:51;;;;;;;19.02;17.67;;;9.90;80.90;;;;;;5087413;28;20398;-85
2022/01/08 07:52:17;;;;;;;18.88;17.23;;;9.90;80.80;;;;;;5088614;28;20032;-85
2022/01/08 07:54:43;;;;;;;17.42;16.63;;;9.90;80.90;;;;;;5090132;28;20029;-84
2022/01/08 07:57:09;;;;;;;17.30;16.50;;;9.90;80.90;;;;;;5089564;28;20040;-84
2022/01/08 07:59:35;;;;;;;18.52;17.70;;;9.90;80.90;;;;;;5056612;28;20032;-84
2022/01/08 08:02:02;;;;;;;17.75;16.65;;;9.90;80.90;;;;;;5069230;28;20051;-84
2022/01/08 08:04:28;;;;;;;18.27;17.38;;;9.90;80.90;;;;;;5071413;28;20036;-82
2022/01/08 08:06:54;;;;;;;18.30;17.40;;;10.00;81.00;;;;;;5035409;28;20047;-84
2022/01/08 08:09:20;;;;;;;17.98;17.10;;;10.00;81.00;;;;;;5052560;28;20033;-83
2022/01/08 08:11:46;;;;;;;18.25;17.00;;;10.00;81.00;;;;;;5055460;28;20039;-87
2022/01/08 08:14:13;;;;;;;17.40;16.60;;;9.90;80.90;;;;;;5068232;28;20028;-85
2022/01/08 08:16:39;;;;;;;17.48;16.65;;;10.00;81.10;;;;;;5071147;28;20509;-85
2022/01/08 08:19:05;;;;;;;17.92;17.02;;;10.00;81.00;;;;;;5103280;28;20025;-82
2022/01/08 08:21:32;;;;;;;17.10;16.30;;;10.00;81.00;;;;;;5069238;28;20052;-81
2022/01/08 08:24:00;;;;;;;17.15;16.35;;;10.00;81.00;;;;;;5069701;28;20028;-82
2022/01/08 08:26:26;;;;;;;17.38;16.58;;;10.10;81.00;;;;;;5068491;28;20043;-83
2022/01/08 08:28:52;;;;;;;18.83;17.92;;;10.10;80.90;;;;;;5069106;28;20029;-83
2022/01/08 08:31:18;;;;;;;17.52;16.73;;;10.10;80.90;;;;;;5070279;28;20071;-82
2022/01/08 08:33:44;;;;;;;18.23;17.33;;;10.10;80.90;;;;;;5069309;28;20028;-81
2022/01/08 08:36:10;;;;;;;18.58;17.33;;;10.20;80.90;;;;;;5069586;28;20036;-82
2022/01/08 08:38:37;;;;;;;17.33;16.52;;;10.20;80.90;;;;;;5068379;28;20044;-83
2022/01/08 08:41:03;;;;;;;17.55;16.75;;;10.20;80.90;;;;;;5051647;28;20051;-82
2022/01/08 08:43:29;;;;;;;17.30;16.50;;;10.30;80.90;;;;;;5104044;28;20024;-83
2022/01/08 08:45:55;;;;;;;17.55;16.75;;;10.30;80.80;;;;;;5083551;28;20525;-82
2022/01/08 08:48:21;;;;;;;18.02;17.13;;;10.40;80.80;;;;;;5102634;28;20376;-82
2022/01/08 08:50:47;;;;;;;17.63;16.83;;;10.40;80.80;;;;;;5101943;28;20095;-83
2022/01/08 08:53:13;;;;;;;19.67;18.17;;;10.40;80.80;;;;;;5034904;28;20037;-83
2022/01/08 08:55:40;;;;;;;17.17;16.38;;;10.50;80.80;;;;;;5068845;28;20047;-82
2022/01/08 08:58:06;;;;;;;18.13;17.33;;;10.50;80.70;;;;;;5068661;28;20048;-82
2022/01/08 09:00:32;;;;;;;17.35;16.55;;;10.50;80.70;;;;;;5068998;28;20037;-78
2022/01/08 09:02:58;;;;;;;17.35;16.55;;;10.60;80.70;;;;;;5066035;28;20493;-84
2022/01/08 09:05:24;;;;;;;17.88;17.08;;;10.60;80.70;;;;;;5060327;28;20524;-84
2022/01/08 09:07:50;;;;;;;18.50;17.50;;;10.60;80.70;;;;;;5101850;28;20025;-85
2022/01/08 09:10:22;;;;;;;18.23;17.23;;;10.70;80.80;;;;;;5066487;28;20040;-84
2022/01/08 09:12:49;;;;;;;17.77;16.98;;;10.70;80.80;;;;;;5061884;28;20045;-84
2022/01/08 09:15:16;;;;;;;18.20;17.40;;;10.70;80.70;;;;;;5097079;28;20032;-83
2022/01/08 09:17:42;;;;;;;18.10;17.20;;;10.70;80.80;;;;;;5067760;28;20044;-84
2022/01/08 09:20:09;;;;;;;18.77;17.88;;;10.80;80.80;;;;;;5094388;28;20028;-84
2022/01/08 09:22:35;;;;;;;17.83;17.02;;;10.80;80.70;;;;;;5071197;28;20029;-84
2022/01/08 09:25:01;;;;;;;18.10;17.30;;;10.80;80.80;;;;;;5079771;28;20045;-83
2022/01/08 09:27:27;;;;;;;17.52;16.73;;;10.90;80.80;;;;;;5064326;28;20028;-82
2022/01/08 09:29:55;;;;;;;17.98;17.17;;;10.90;80.70;;;;;;5095958;28;20036;-84
2022/01/08 09:32:23;;;;;;;18.35;17.55;;;10.90;80.70;;;;;;5066503;28;20033;-82
2022/01/08 09:34:50;;;;;;;19.02;18.13;;;11.00;80.70;;;;;;5085402;28;20028;-83
2022/01/08 09:37:16;;;;;;;18.75;17.85;;;11.00;80.80;;;;;;5079840;28;20039;-82
2022/01/08 09:39:42;;;;;;;17.95;17.10;;;11.10;80.80;;;;;;5062599;28;20032;-83
2022/01/08 09:42:08;;;;;;;17.65;16.85;;;11.10;80.70;;;;;;5055917;28;20037;-82
2022/01/08 09:44:37;;;;;;;17.95;17.15;;;11.20;80.70;;;;;;5087284;28;20028;-83
2022/01/08 09:47:04;;;;;;;18.60;17.50;;;11.30;80.70;;;;;;5079788;28;20043;-83
2022/01/08 09:49:31;;;;;;;18.40;17.50;;;11.40;80.70;;;;;;5068649;28;20017;-87
2022/01/08 09:51:57;;;;;;;18.33;17.42;;;11.50;80.70;;;;;;5088366;28;20486;-82
2022/01/08 09:54:24;;;;;;;18.90;17.95;;;11.50;80.60;;;;;;5090274;28;20040;-82
2022/01/08 09:56:50;;;;;;;19.15;18.13;;;11.60;80.50;;;;;;5059050;28;20041;-82
2022/01/08 09:59:17;;;;;;;19.27;18.27;;;11.60;80.50;;;;;;5085656;28;20029;-83
2022/01/08 10:01:43;;;;;;;20.63;19.63;;;11.80;80.60;;;;;;5052811;28;20040;-82
2022/01/08 10:04:09;;;;;;;19.52;18.63;;;11.80;80.60;;;;;;5066548;28;20032;-82
2022/01/08 10:06:36;;;;;;;19.45;18.55;;;11.80;80.60;;;;;;5095455;28;20478;-83
2022/01/08 10:09:04;;;;;;;19.33;18.42;;;11.90;80.50;;;;;;5069989;28;20055;-84
2022/01/08 10:11:31;;;;;;;20.58;19.65;;;12.00;80.50;;;;;;5070702;28;20044;-82
2022/01/08 10:14:02;;;;;;;19.95;19.05;;;12.00;80.40;;;;;;5097029;28;20024;-81
2022/01/08 10:19:31;;;;;;;21.08;20.08;;;12.10;80.50;;;;;;5047198;28;20052;-80
2022/01/08 10:21:57;;;;;;;20.88;19.90;;;12.10;80.50;;;;;;5104182;28;20036;-83
2022/01/08 10:24:28;;;;;;;22.05;20.95;;;12.10;80.50;;;;;;5090223;28;20462;-82
2022/01/08 10:27:02;;;;;;;21.43;20.27;;;12.10;80.60;;;;;;5101701;28;20024;-81
2022/01/08 10:29:28;;;;;;;20.65;19.65;;;12.10;80.70;;;;;;5054922;28;20291;-80
2022/01/08 10:31:55;;;;;;;20.38;19.42;;;12.10;80.60;;;;;;5069873;28;20035;-81
2022/01/08 10:34:22;;;;;;;20.58;19.55;;;12.10;80.60;;;;;;5073526;28;20033;-82
2022/01/08 10:36:52;;;;;;;20.20;19.30;;;12.10;80.60;;;;;;5070260;28;20032;-83
2022/01/08 10:39:23;;;;;;;19.77;18.88;;;12.10;80.70;;;;;;5055178;28;20032;-81
2022/01/08 10:41:50;;;;;;;20.38;19.45;;;12.10;80.70;;;;;;5038484;28;20040;-81
2022/01/08 10:44:24;;;;;;;19.30;18.40;;;12.10;80.70;;;;;;5053691;28;20488;-82
2022/01/08 10:46:58;;;;;;;20.13;19.23;;;12.10;80.80;;;;;;5069342;28;20040;-82
2022/01/08 10:49:38;;;;;;;20.25;19.20;;;12.00;80.80;;;;;;5070234;28;20385;-80
2022/01/08 10:52:09;;;;;;;21.02;19.85;;;12.00;80.80;;;;;;5070404;28;20029;-80
2022/01/08 10:54:36;;;;;;;20.63;19.73;;;12.00;80.80;;;;;;5038486;28;20460;-80
2022/01/08 10:57:06;;;;;;;20.30;19.40;;;12.00;80.70;;;;;;5071412;28;20052;-85
2022/01/08 10:59:32;;;;;;;21.20;20.17;;;12.10;80.80;;;;;;5053580;28;20029;-85
2022/01/08 11:02:03;;;;;;;20.45;19.48;;;12.00;80.80;;;;;;5052982;28;20508;-87
2022/01/08 11:04:39;;;;;;;19.58;18.67;;;12.00;80.80;;;;;;5105509;28;20027;-88
2022/01/08 11:07:35;;;;;;;19.55;18.65;;;12.10;80.80;;;;;;5104030;28;20432;-89
2022/01/08 11:10:07;;;;;;;21.23;20.23;;;12.00;80.80;;;;;;5067360;28;20421;-89
2022/01/08 11:12:42;;;;;;;19.90;19.00;;;12.00;80.70;;;;;;5070286;28;20029;-89
2022/01/08 11:17:50;;;;;;;18.83;17.92;;;12.00;80.80;;;;;;5072924;28;20485;-90
2022/01/08 11:20:21;;;;;;;19.35;18.45;;;11.90;80.80;;;;;;5068141;28;20025;-90
2022/01/08 11:22:51;;;;;;;19.73;18.83;;;11.90;80.90;;;;;;5054297;28;20039;-91
2022/01/08 11:25:18;;;;;;;19.20;18.30;;;11.90;80.90;;;;;;5071414;28;20025;-89
2022/01/08 11:28:05;;;;;;;19.63;18.73;;;11.90;80.90;;;;;;5071388;28;20025;-91
2022/01/08 11:30:32;;;;;;;19.45;18.55;;;11.90;80.90;;;;;;5069523;28;20036;-91
2022/01/08 11:33:03;;;;;;;21.38;19.90;;;11.90;80.90;;;;;;5069609;28;20041;-91
2022/01/08 11:35:31;;;;;;;20.38;19.27;;;11.90;80.90;;;;;;5070761;28;20032;-88
2022/01/08 11:37:57;;;;;;;20.02;19.13;;;11.80;80.80;;;;;;5070660;28;20444;-87
2022/01/08 11:40:25;;;;;;;21.60;20.27;;;11.80;80.80;;;;;;5105037;28;20053;-86
2022/01/08 11:42:51;;;;;;;20.15;19.25;;;11.80;80.90;;;;;;5085869;28;20024;-86
2022/01/08 11:45:27;;;;;;;20.23;19.33;;;11.80;81.00;;;;;;5102015;28;20055;-86
2022/01/08 11:47:55;;;;;;;19.77;18.83;;;11.80;81.00;;;;;;5037962;28;20041;-85
2022/01/08 11:50:31;;;;;;;19.90;18.90;;;11.70;81.00;;;;;;5054201;28;20040;-88
2022/01/08 11:53:26;;;;;;;21.05;19.77;;;11.70;81.00;;;;;;5069284;28;20604;-86
2022/01/08 11:56:03;;;;;;;22.00;20.67;;;11.70;81.00;;;;;;5101553;28;20381;-87
2022/01/08 11:58:33;;;;;;;21.00;19.80;;;11.70;81.10;;;;;;5086706;28;20405;-87
2022/01/08 12:01:04;;;;;;;19.95;19.05;;;11.70;81.10;;;;;;5068121;28;20039;-87
2022/01/08 12:03:31;;;;;;;21.40;20.30;;;11.70;81.10;;;;;;5035916;28;20036;-87
2022/01/08 12:06:17;;;;;;;20.25;19.35;;;11.70;81.10;;;;;;5069050;28;20025;-86
2022/01/08 12:08:57;;;;;;;19.38;18.48;;;11.70;81.10;;;;;;5070228;28;20025;-87
2022/01/08 12:11:23;;;;;;;19.88;18.98;;;11.70;81.20;;;;;;5069858;28;20025;-87
2022/01/08 12:13:50;;;;;;;20.88;19.67;;;11.60;81.10;;;;;;5053218;28;20389;-86
2022/01/08 12:16:36;;;;;;;19.65;18.75;;;11.60;81.10;;;;;;5059932;28;20056;-87
2022/01/08 12:19:07;;;;;;;20.33;19.42;;;11.60;81.20;;;;;;5100694;28;20032;-87
2022/01/08 12:21:42;;;;;;;20.25;19.25;;;11.70;81.20;;;;;;5085237;28;20091;-88
2022/01/08 12:24:26;;;;;;;19.95;19.05;;;11.60;81.20;;;;;;5069691;28;20036;-89
2022/01/08 12:26:53;;;;;;;19.33;18.42;;;11.60;81.20;;;;;;5069357;28;20036;-87
2022/01/08 12:29:35;;;;;;;21.15;19.92;;;11.60;81.20;;;;;;5050674;28;20033;-88
2022/01/08 12:32:34;;;;;;;19.75;18.85;;;11.60;82.00;;;;;;5069331;28;20032;-86
2022/01/08 12:37:50;;;;;;;19.80;18.90;;;11.60;81.20;;;;;;5101869;28;20040;-86
2022/01/08 12:40:42;;;;;;;20.30;19.35;;;11.60;81.30;;;;;;5070755;28;20028;-86
2022/01/08 12:43:20;;;;;;;20.92;19.88;;;11.60;81.30;;;;;;5052709;28;20044;-86
2022/01/08 12:45:48;;;;;;;20.45;19.20;;;11.50;81.30;;;;;;5074949;28;20427;-87
2022/01/08 12:48:15;;;;;;;21.75;20.27;;;11.60;81.30;;;;;;5075427;28;20025;-87
2022/01/08 12:50:44;;;;;;;19.98;19.08;;;11.50;81.30;;;;;;5097966;28;20033;-87
2022/01/08 12:53:24;;;;;;;22.02;21.02;;;11.50;81.30;;;;;;5054055;28;20021;-86
2022/01/08 12:55:53;;;;;;;21.60;19.92;;;11.50;81.30;;;;;;5066515;28;20508;-86
2022/01/08 12:58:25;;;;;;;19.65;18.75;;;11.50;81.40;;;;;;5070861;28;20132;-87
2022/01/08 13:01:06;;;;;;;19.60;18.70;;;11.50;81.40;;;;;;5068125;28;20037;-86